Wye Mills, Maryland
Current Conditions -  °F | °C
As of 5:06 AM on Thursday 23 Oct 2014 (Local Time) from KESN Reporting Station
Broken Clouds Broken Clouds  
Wind Chill: 55°   Ceiling: 1400
Heat Index: 55°   Visibility: 10mi
Dew Point: 49°   Wind: 17mph
Humidity: 81%   Direction: 350°N
Pressure: 29.85"   Gusts: 23mph
Location:  38.94°N, 76.08°W
Report Text: KESN 230906Z AUTO 35015G20KT 10SM SCT010 BKN014 BKN023 13/09 A2985 RMK AO2 T01250093
Loading
Personal Weather Stations






























Interactive Weather Map
Tropical Storm Tracking
New forecast layout! Learn more

10-Day Weather Forecast

Advertisements
Track Severe Weather on mobile